Arch Cape, Oregon
Current Conditions -  °F | °C
As of 1:55 AM on Sunday 21 Dec 2014 (Local Time) from KAST Reporting Station
Overcast Overcast  
Wind Chill: 55°   Ceiling: 1800
Heat Index: 55°   Visibility: 9mi
Dew Point: 51°   Wind: 20mph
Humidity: 86%   Direction: 250°WSW
Pressure: 29.81"   Gusts: 25mph
Location:  45.8°N, 123.96°W
Report Text: KAST 210955Z AUTO 25017G22KT 9SM BKN018 BKN024 OVC043 13/11 A2981 RMK AO2 RAE0858 SLP096 P0000 T01280106 $
Loading
Personal Weather Stations






























Interactive Weather Map New forecast layout! Learn more

10-Day Weather Forecast

Advertisements
Track Severe Weather on mobile